Time;durP1;ratioP1;P1;durP2;ratioP2;P2;SDS_P1;SDS_P2;PMS_P1;PMS_P2;Temp;Humidity;BMP_temperature;BMP_pressure;BME280_temperature;BME280_humidity;BME280_pressure;Samples;Min_cycle;Max_cycle;Signal;HPM_P1;HPM_P2
2023/07/12 00:01:15;;;;;;;6.50;1.90;;;19.40;58.60;;;;;;4836455;29;20500;-90
2023/07/12 00:03:43;;;;;;;7.50;2.33;;;19.30;58.70;;;;;;4838627;29;20120;-90
2023/07/12 00:06:15;;;;;;;7.93;2.35;;;19.30;58.80;;;;;;4854257;29;20453;-90
2023/07/12 00:08:43;;;;;;;6.13;1.85;;;19.20;58.80;;;;;;4840175;29;20696;-90
2023/07/12 00:11:20;;;;;;;5.03;1.77;;;19.20;58.80;;;;;;4840799;29;20123;-90
2023/07/12 00:13:48;;;;;;;6.30;2.13;;;19.20;58.80;;;;;;4832973;29;20058;-91
2023/07/12 00:16:29;;;;;;;6.82;2.20;;;19.20;59.10;;;;;;4854994;29;20515;-90
2023/07/12 00:18:57;;;;;;;6.85;2.10;;;19.20;59.20;;;;;;4839014;29;20557;-90
2023/07/12 00:21:27;;;;;;;6.38;2.10;;;19.20;58.80;;;;;;4838201;29;20137;-91
2023/07/12 00:23:56;;;;;;;7.57;2.13;;;19.20;59.00;;;;;;4858244;29;20125;-91
2023/07/12 00:26:31;;;;;;;7.07;2.30;;;19.20;59.30;;;;;;4839267;29;20053;-91
2023/07/12 00:29:00;;;;;;;7.07;2.33;;;19.20;59.00;;;;;;4841037;29;20045;-91
2023/07/12 00:31:31;;;;;;;8.20;2.58;;;19.20;59.10;;;;;;4842882;29;20083;-90
2023/07/12 00:33:58;;;;;;;7.85;2.47;;;19.20;59.30;;;;;;4838721;29;20427;-91
2023/07/12 00:36:31;;;;;;;5.63;2.10;;;19.20;59.40;;;;;;4837848;29;20045;-91
2023/07/12 00:39:00;;;;;;;7.60;2.20;;;19.20;59.30;;;;;;4840233;29;20495;-91
2023/07/12 00:41:49;;;;;;;6.90;2.88;;;19.10;59.70;;;;;;4840555;29;20526;-90
2023/07/12 00:44:22;;;;;;;6.82;2.22;;;19.10;59.60;;;;;;4851246;29;20073;-90
2023/07/12 00:46:55;;;;;;;6.30;2.50;;;19.10;59.90;;;;;;4837014;29;20132;-91
2023/07/12 00:49:24;;;;;;;7.80;2.30;;;19.00;60.00;;;;;;4838942;29;20049;-91
2023/07/12 00:52:08;;;;;;;6.87;2.00;;;19.00;60.10;;;;;;4839334;29;20045;-91
2023/07/12 00:54:49;;;;;;;5.85;2.15;;;19.00;60.10;;;;;;4856072;29;20049;-91
2023/07/12 00:57:17;;;;;;;10.30;2.42;;;19.00;60.30;;;;;;4841664;29;20063;-91
2023/07/12 00:59:44;;;;;;;7.50;2.50;;;19.00;60.10;;;;;;4849776;29;20385;-91
2023/07/12 01:02:13;;;;;;;7.13;2.15;;;19.00;60.10;;;;;;4837164;29;20045;-91
2023/07/12 01:04:49;;;;;;;7.23;2.77;;;19.00;60.10;;;;;;4843297;29;20056;-92
2023/07/12 01:07:18;;;;;;;7.15;2.67;;;19.00;60.20;;;;;;4849237;29;20041;-91
2023/07/12 01:09:47;;;;;;;8.90;2.50;;;19.00;60.50;;;;;;4835984;29;20073;-92
2023/07/12 01:12:15;;;;;;;8.35;2.67;;;18.90;60.40;;;;;;4831539;29;20487;-91
2023/07/12 01:14:43;;;;;;;7.28;2.80;;;19.00;60.20;;;;;;4860810;29;20500;-90
2023/07/12 01:17:10;;;;;;;6.40;2.50;;;18.90;60.30;;;;;;4846812;29;20087;-90
2023/07/12 01:19:39;;;;;;;7.53;2.80;;;18.90;60.60;;;;;;4846177;29;20060;-91
2023/07/12 01:22:07;;;;;;;9.00;2.38;;;18.80;60.60;;;;;;4847125;29;20139;-90
2023/07/12 01:24:34;;;;;;;7.28;2.30;;;18.80;60.50;;;;;;4841120;29;20045;-91
2023/07/12 01:27:13;;;;;;;7.82;2.55;;;18.70;60.90;;;;;;4844836;29;20037;-90
2023/07/12 01:29:40;;;;;;;9.97;2.43;;;18.70;60.90;;;;;;4845000;29;20041;-91
2023/07/12 01:32:09;;;;;;;7.50;2.50;;;18.80;61.10;;;;;;4856165;29;20045;-90
2023/07/12 01:34:36;;;;;;;7.05;2.53;;;18.70;61.10;;;;;;4834729;29;20149;-90
2023/07/12 01:37:05;;;;;;;6.43;2.30;;;18.70;61.00;;;;;;4838284;29;20073;-90
2023/07/12 01:39:35;;;;;;;7.55;2.50;;;18.70;61.00;;;;;;4836776;29;20057;-90
2023/07/12 01:42:03;;;;;;;8.57;2.73;;;18.80;61.10;;;;;;4839467;29;20050;-91
2023/07/12 01:44:30;;;;;;;8.90;2.75;;;18.60;61.10;;;;;;4845101;29;20403;-90
2023/07/12 01:46:57;;;;;;;7.43;2.45;;;18.60;61.00;;;;;;4837769;29;20099;-91
2023/07/12 01:49:25;;;;;;;8.48;2.45;;;18.60;61.20;;;;;;4844523;29;20492;-91
2023/07/12 01:51:52;;;;;;;6.95;2.45;;;18.60;61.20;;;;;;4842791;29;20084;-91
2023/07/12 01:54:19;;;;;;;6.33;2.50;;;18.60;61.30;;;;;;4835714;29;20061;-91
2023/07/12 01:56:46;;;;;;;6.93;2.60;;;18.60;61.30;;;;;;4848227;29;20056;-91
2023/07/12 01:59:13;;;;;;;8.18;2.75;;;18.60;61.10;;;;;;4839818;29;20049;-91
2023/07/12 02:01:41;;;;;;;6.75;3.05;;;18.60;61.20;;;;;;4828552;29;20045;-91
2023/07/12 02:04:08;;;;;;;7.15;2.50;;;18.60;61.40;;;;;;4847272;29;20405;-91
2023/07/12 02:06:35;;;;;;;7.50;2.80;;;18.60;61.30;;;;;;4847229;29;20104;-91
2023/07/12 02:09:03;;;;;;;8.52;2.85;;;18.50;61.60;;;;;;4833337;29;20080;-92
2023/07/12 02:11:32;;;;;;;7.65;2.40;;;18.50;61.30;;;;;;4848489;29;20045;-92
2023/07/12 02:13:59;;;;;;;7.53;2.80;;;18.50;61.70;;;;;;4836494;29;20065;-90
2023/07/12 02:16:26;;;;;;;6.70;2.53;;;18.50;61.70;;;;;;4833309;29;20057;-91
2023/07/12 02:18:54;;;;;;;7.90;2.53;;;18.50;61.70;;;;;;4833740;29;20053;-91
2023/07/12 02:21:21;;;;;;;6.30;2.33;;;18.50;61.50;;;;;;4833692;29;20049;-91
2023/07/12 02:23:48;;;;;;;7.63;2.42;;;18.50;61.30;;;;;;4833025;29;20056;-92
2023/07/12 02:26:15;;;;;;;6.68;2.25;;;18.50;61.70;;;;;;4833318;29;20207;-91
2023/07/12 02:28:42;;;;;;;7.60;2.60;;;18.50;61.30;;;;;;4836398;29;20135;-91
2023/07/12 02:31:24;;;;;;;10.20;2.50;;;18.50;61.40;;;;;;4840934;29;20060;-91
2023/07/12 02:33:55;;;;;;;7.82;2.17;;;18.50;61.20;;;;;;4836603;29;20050;-91
2023/07/12 02:36:22;;;;;;;6.60;2.10;;;18.50;61.20;;;;;;4846753;29;20045;-92
2023/07/12 02:38:50;;;;;;;6.15;2.30;;;18.50;61.20;;;;;;4848472;29;20041;-91
2023/07/12 02:41:18;;;;;;;8.73;2.65;;;18.60;61.00;;;;;;4840419;29;20128;-91
2023/07/12 02:43:46;;;;;;;6.40;2.13;;;18.60;60.70;;;;;;4844913;29;20046;-91
2023/07/12 02:46:14;;;;;;;7.90;2.58;;;18.60;60.90;;;;;;4845746;29;20061;-91
2023/07/12 02:48:41;;;;;;;7.60;2.58;;;18.60;60.90;;;;;;4843195;29;20045;-90
2023/07/12 02:51:08;;;;;;;7.22;2.63;;;18.60;60.90;;;;;;4848269;29;20045;-90
2023/07/12 02:53:36;;;;;;;7.25;2.30;;;18.50;60.80;;;;;;4841387;29;20050;-90
2023/07/12 02:56:07;;;;;;;6.83;2.57;;;18.50;60.90;;;;;;4837205;29;20412;-91
2023/07/12 02:58:34;;;;;;;7.15;2.40;;;18.50;60.70;;;;;;4837848;29;20077;-91
2023/07/12 03:01:02;;;;;;;7.30;2.63;;;18.60;61.00;;;;;;4857566;29;20124;-91
2023/07/12 03:03:30;;;;;;;6.07;2.40;;;18.60;61.00;;;;;;4834273;29;20061;-91
2023/07/12 03:06:05;;;;;;;8.35;2.53;;;18.60;60.60;;;;;;4854809;29;20492;-91
2023/07/12 03:08:33;;;;;;;6.60;2.23;;;18.60;60.60;;;;;;4840841;29;20422;-91
2023/07/12 03:11:02;;;;;;;5.88;2.15;;;18.60;60.50;;;;;;4834637;29;20056;-92
2023/07/12 03:13:29;;;;;;;6.50;2.20;;;18.60;60.50;;;;;;4858211;29;20045;-91
2023/07/12 03:15:58;;;;;;;7.63;2.72;;;18.60;60.40;;;;;;4837907;29;20045;-90
2023/07/12 03:18:25;;;;;;;6.75;2.40;;;18.70;60.30;;;;;;4837003;29;20058;-91
2023/07/12 03:20:57;;;;;;;7.87;2.50;;;18.80;60.10;;;;;;4835721;29;20046;-91
2023/07/12 03:23:24;;;;;;;8.90;2.60;;;18.80;59.80;;;;;;4846971;29;20053;-90
2023/07/12 03:25:51;;;;;;;7.43;2.50;;;18.80;59.80;;;;;;4838592;29;20109;-91
2023/07/12 03:28:18;;;;;;;7.80;2.15;;;18.90;59.80;;;;;;4855759;29;20069;-91
2023/07/12 03:31:16;;;;;;;6.40;2.33;;;19.00;59.70;;;;;;4839124;29;20510;-90
2023/07/12 03:33:45;;;;;;;7.03;2.40;;;19.10;59.50;;;;;;4841733;29;20045;-91
2023/07/12 03:36:13;;;;;;;5.90;2.10;;;19.10;59.90;;;;;;4840081;29;20101;-91
2023/07/12 03:38:41;;;;;;;6.15;2.38;;;19.20;59.20;;;;;;4849317;29;20057;-90
2023/07/12 03:41:10;;;;;;;5.75;2.10;;;19.20;58.80;;;;;;4848599;29;20080;-90
2023/07/12 03:43:38;;;;;;;7.80;2.35;;;19.30;59.10;;;;;;4849847;29;20057;-90
2023/07/12 03:46:05;;;;;;;7.07;2.40;;;19.40;58.90;;;;;;4849495;29;20140;-90
2023/07/12 03:48:33;;;;;;;6.65;2.53;;;19.40;58.90;;;;;;4849503;29;20055;-90
2023/07/12 03:51:00;;;;;;;20.08;2.50;;;19.50;58.80;;;;;;4849495;29;20053;-90
2023/07/12 03:53:28;;;;;;;7.90;2.55;;;19.60;58.30;;;;;;4849445;29;20542;-91
2023/07/12 03:56:03;;;;;;;7.25;2.40;;;19.60;58.20;;;;;;4849605;29;20492;-91
2023/07/12 03:58:35;;;;;;;6.90;2.40;;;19.70;58.20;;;;;;4849504;29;20526;-89
2023/07/12 04:01:05;;;;;;;9.82;2.55;;;19.80;58.20;;;;;;4843234;29;20045;-90
2023/07/12 04:03:33;;;;;;;7.03;2.67;;;19.80;57.70;;;;;;4830885;29;20050;-91
2023/07/12 04:06:03;;;;;;;6.85;2.53;;;19.80;58.10;;;;;;4831644;29;20088;-90
2023/07/12 04:08:31;;;;;;;6.60;2.20;;;19.80;58.00;;;;;;4830967;29;20412;-91
2023/07/12 04:10:58;;;;;;;6.50;2.50;;;19.90;57.90;;;;;;4831281;29;20050;-91
2023/07/12 04:13:26;;;;;;;6.22;2.60;;;19.90;58.60;;;;;;4831513;29;20100;-90
2023/07/12 04:15:55;;;;;;;7.65;2.55;;;19.90;58.40;;;;;;4831110;29;20057;-91
2023/07/12 04:18:24;;;;;;;6.18;2.50;;;20.00;58.30;;;;;;4830944;29;20053;-90
2023/07/12 04:20:53;;;;;;;6.72;2.47;;;20.00;58.30;;;;;;4830948;29;20146;-91
2023/07/12 04:23:20;;;;;;;8.30;2.80;;;20.10;58.40;;;;;;4831035;29;20057;-90
2023/07/12 04:25:48;;;;;;;8.13;2.67;;;20.10;58.70;;;;;;4830342;29;20073;-91
2023/07/12 04:28:15;;;;;;;8.45;2.70;;;20.20;57.80;;;;;;4830771;29;20042;-90
2023/07/12 04:30:42;;;;;;;7.00;2.47;;;20.40;57.90;;;;;;4831701;29;20144;-90
2023/07/12 04:33:10;;;;;;;6.88;2.88;;;20.50;57.80;;;;;;4830709;29;20061;-90
2023/07/12 04:35:38;;;;;;;9.17;2.70;;;20.60;57.30;;;;;;4831051;29;20041;-91
2023/07/12 04:38:05;;;;;;;6.85;3.00;;;20.60;57.30;;;;;;4830983;29;20049;-91
2023/07/12 04:40:35;;;;;;;8.32;2.72;;;20.80;57.10;;;;;;4830912;29;20053;-91
2023/07/12 04:43:05;;;;;;;9.13;3.00;;;20.80;57.00;;;;;;4830535;29;20053;-91
2023/07/12 04:45:32;;;;;;;10.05;3.03;;;20.90;57.00;;;;;;4831022;29;20098;-92
2023/07/12 04:48:00;;;;;;;7.60;2.80;;;21.00;56.50;;;;;;4830960;29;20053;-90
2023/07/12 04:50:27;;;;;;;7.45;2.75;;;21.10;56.40;;;;;;4830605;29;20049;-91
2023/07/12 04:52:54;;;;;;;8.52;2.90;;;21.10;56.90;;;;;;4831104;29;20053;-91
2023/07/12 04:55:25;;;;;;;11.52;2.88;;;21.10;56.40;;;;;;4830525;29;20106;-90
2023/07/12 04:57:52;;;;;;;8.05;3.03;;;21.20;56.20;;;;;;4830584;29;20050;-91
2023/07/12 05:00:19;;;;;;;7.07;2.93;;;21.30;56.40;;;;;;4830446;29;20067;-90
2023/07/12 05:02:47;;;;;;;7.97;2.75;;;21.30;55.20;;;;;;4830401;29;20049;-90
2023/07/12 05:05:14;;;;;;;6.82;2.58;;;21.40;55.50;;;;;;4830646;29;20114;-90
2023/07/12 05:07:43;;;;;;;8.98;3.00;;;21.50;54.60;;;;;;4830567;29;20058;-90
2023/07/12 05:10:10;;;;;;;8.43;3.25;;;21.50;54.80;;;;;;4830589;29;20152;-90
2023/07/12 05:12:39;;;;;;;9.43;3.00;;;21.50;54.80;;;;;;4830335;29;20049;-90
2023/07/12 05:15:08;;;;;;;9.93;3.10;;;21.60;54.40;;;;;;4845676;29;20078;-90
2023/07/12 05:17:37;;;;;;;10.25;3.70;;;21.60;54.20;;;;;;4830964;29;20487;-90
2023/07/12 05:20:08;;;;;;;12.45;3.83;;;21.60;54.70;;;;;;4830515;29;20050;-92
2023/07/12 05:22:35;;;;;;;19.90;4.88;;;21.60;55.50;;;;;;4836712;29;20049;-88
2023/07/12 05:25:02;;;;;;;12.90;5.67;;;21.70;57.90;;;;;;4839603;29;20037;-89
2023/07/12 05:27:29;;;;;;;17.08;6.20;;;21.60;63.40;;;;;;4837384;29;20053;-89
2023/07/12 05:29:56;;;;;;;20.20;7.05;;;21.40;66.10;;;;;;4833480;29;20135;-88
2023/07/12 05:32:23;;;;;;;16.88;6.57;;;21.20;68.50;;;;;;4840079;29;20052;-88
2023/07/12 05:34:50;;;;;;;16.60;6.13;;;21.10;69.20;;;;;;4839638;29;20050;-88
2023/07/12 05:37:18;;;;;;;13.47;5.77;;;20.90;69.80;;;;;;4842395;29;20048;-88
2023/07/12 05:39:45;;;;;;;17.90;6.60;;;20.90;69.80;;;;;;4834128;29;20390;-88
2023/07/12 05:42:15;;;;;;;16.38;6.32;;;21.00;71.40;;;;;;4857502;29;20137;-88
2023/07/12 05:44:42;;;;;;;13.80;6.47;;;20.80;73.80;;;;;;4845966;29;20048;-89
2023/07/12 05:47:09;;;;;;;14.23;6.50;;;20.90;74.00;;;;;;4851059;29;20080;-89
2023/07/12 05:49:36;;;;;;;15.57;6.67;;;20.80;74.60;;;;;;4850756;29;20048;-89
2023/07/12 05:52:04;;;;;;;16.70;7.28;;;20.60;75.00;;;;;;4842877;29;20132;-88
2023/07/12 05:54:31;;;;;;;20.33;9.07;;;20.60;75.30;;;;;;4839067;29;20070;-88
2023/07/12 05:57:00;;;;;;;20.40;8.77;;;20.50;74.40;;;;;;4840685;29;20051;-89
2023/07/12 05:59:27;;;;;;;16.50;8.68;;;20.50;75.90;;;;;;4843509;29;20413;-88
2023/07/12 06:01:55;;;;;;;12.00;5.60;;;20.50;75.60;;;;;;4840331;29;20046;-88
2023/07/12 06:04:22;;;;;;;11.57;4.82;;;20.50;73.30;;;;;;4841544;29;20101;-88
2023/07/12 06:06:50;;;;;;;8.90;4.65;;;20.50;72.80;;;;;;4840345;29;20492;-88
2023/07/12 06:09:17;;;;;;;10.77;4.72;;;20.60;72.90;;;;;;4840538;29;20041;-88
2023/07/12 06:11:44;;;;;;;10.20;4.72;;;20.80;70.70;;;;;;4835197;29;20491;-89
2023/07/12 06:14:11;;;;;;;7.30;3.77;;;21.20;70.10;;;;;;4835652;29;20522;-89
2023/07/12 06:16:39;;;;;;;7.65;3.60;;;21.60;65.90;;;;;;4839348;29;20053;-89
2023/07/12 06:19:06;;;;;;;10.13;3.88;;;22.00;68.00;;;;;;4840410;29;20049;-89
2023/07/12 06:21:33;;;;;;;9.20;4.40;;;22.20;65.80;;;;;;4847050;29;20141;-90
2023/07/12 06:24:00;;;;;;;10.48;4.18;;;22.50;65.80;;;;;;4839843;29;20049;-90
2023/07/12 06:26:27;;;;;;;11.23;4.67;;;22.60;63.50;;;;;;4833571;29;20082;-92
2023/07/12 06:28:54;;;;;;;11.20;4.60;;;22.70;64.80;;;;;;4832459;29;20076;-90
2023/07/12 06:31:22;;;;;;;9.60;4.53;;;22.70;63.90;;;;;;4832720;29;20046;-89
2023/07/12 06:33:49;;;;;;;10.38;5.10;;;22.80;63.90;;;;;;4832663;29;20432;-90
2023/07/12 06:36:19;;;;;;;11.35;4.60;;;22.80;61.50;;;;;;4832745;29;20057;-90
2023/07/12 06:38:47;;;;;;;12.37;4.80;;;22.90;62.20;;;;;;4832356;29;20056;-89
2023/07/12 06:41:14;;;;;;;8.73;4.03;;;23.00;62.40;;;;;;4832697;29;20057;-93
2023/07/12 06:43:41;;;;;;;13.80;4.32;;;23.00;62.10;;;;;;4833353;29;20098;-90
2023/07/12 06:46:08;;;;;;;10.07;4.38;;;23.10;61.00;;;;;;4832308;29;20046;-90
2023/07/12 06:48:35;;;;;;;7.93;3.75;;;23.30;60.70;;;;;;4831750;29;20509;-90
2023/07/12 06:51:02;;;;;;;8.73;4.20;;;23.50;60.10;;;;;;4832278;29;20072;-90
2023/07/12 06:53:30;;;;;;;8.70;3.65;;;23.60;59.30;;;;;;4847177;29;20068;-90
2023/07/12 06:55:57;;;;;;;9.50;3.83;;;23.80;58.40;;;;;;4839426;29;20045;-89
2023/07/12 06:58:24;;;;;;;10.27;3.85;;;24.00;57.30;;;;;;4839523;29;20057;-89
2023/07/12 07:00:52;;;;;;;8.13;4.22;;;24.20;58.50;;;;;;4831751;29;20106;-89
2023/07/12 07:03:19;;;;;;;8.53;3.90;;;24.40;57.20;;;;;;4831929;29;20051;-89
2023/07/12 07:05:47;;;;;;;7.93;3.78;;;24.50;57.20;;;;;;4831784;29;20038;-90
2023/07/12 07:08:17;;;;;;;10.77;3.95;;;24.60;56.50;;;;;;4831884;29;20041;-90
2023/07/12 07:10:49;;;;;;;9.52;3.88;;;24.50;55.90;;;;;;4831997;29;20049;-90
2023/07/12 07:13:16;;;;;;;8.25;3.92;;;24.40;56.90;;;;;;4833607;29;20049;-93
2023/07/12 07:15:46;;;;;;;8.73;4.27;;;24.30;56.80;;;;;;4832999;29;20112;-92
2023/07/12 07:18:13;;;;;;;9.98;4.80;;;24.30;57.10;;;;;;4833130;29;20057;-91
2023/07/12 07:20:41;;;;;;;8.57;4.25;;;24.60;59.20;;;;;;4831883;29;20060;-91
2023/07/12 07:23:09;;;;;;;10.57;4.28;;;24.90;57.40;;;;;;4831499;29;20531;-90
2023/07/12 07:25:40;;;;;;;9.02;3.92;;;25.20;56.40;;;;;;4831874;29;20049;-89
2023/07/12 07:28:10;;;;;;;8.77;3.70;;;25.50;57.00;;;;;;4848978;29;20202;-89
2023/07/12 07:30:37;;;;;;;10.77;3.95;;;25.60;55.60;;;;;;4849615;29;20085;-89
2023/07/12 07:33:05;;;;;;;8.50;4.10;;;25.90;56.20;;;;;;4849633;29;20049;-89
2023/07/12 07:35:32;;;;;;;9.13;4.53;;;25.80;55.20;;;;;;4844097;29;20053;-89
2023/07/12 07:37:59;;;;;;;10.25;4.63;;;25.80;55.80;;;;;;4831234;29;20054;-89
2023/07/12 07:40:26;;;;;;;9.47;4.87;;;26.00;55.90;;;;;;4831415;29;20049;-91
2023/07/12 07:42:55;;;;;;;14.15;5.07;;;26.30;56.20;;;;;;4831406;29;20504;-90
2023/07/12 07:45:22;;;;;;;10.45;5.22;;;26.40;54.70;;;;;;4831414;29;20049;-91
2023/07/12 07:47:49;;;;;;;13.05;5.43;;;26.40;55.60;;;;;;4831451;29;20054;-90
2023/07/12 07:50:17;;;;;;;16.70;5.95;;;26.40;55.90;;;;;;4831247;29;20057;-90
2023/07/12 07:52:44;;;;;;;13.07;5.37;;;26.40;55.00;;;;;;4831411;29;20385;-90
2023/07/12 07:55:11;;;;;;;14.23;6.30;;;26.20;54.90;;;;;;4831401;29;20139;-89
2023/07/12 07:57:38;;;;;;;10.05;5.05;;;26.00;55.30;;;;;;4831335;29;20067;-90
2023/07/12 08:00:10;;;;;;;9.73;4.80;;;25.90;55.20;;;;;;4830668;29;20092;-91
2023/07/12 08:02:42;;;;;;;11.23;4.88;;;25.60;55.50;;;;;;4831596;29;20080;-88
2023/07/12 08:05:11;;;;;;;12.50;5.50;;;25.40;55.50;;;;;;4849327;29;20078;-89
2023/07/12 08:07:40;;;;;;;13.05;5.38;;;25.20;56.30;;;;;;4849115;29;20051;-90
2023/07/12 08:10:12;;;;;;;12.00;5.05;;;25.10;56.60;;;;;;4849389;29;20057;-90
2023/07/12 08:12:39;;;;;;;12.40;5.60;;;25.10;57.20;;;;;;4849257;29;20049;-91
2023/07/12 08:15:10;;;;;;;14.57;5.50;;;25.00;57.60;;;;;;4849156;29;20409;-91
2023/07/12 08:17:38;;;;;;;15.67;6.27;;;25.00;57.70;;;;;;4849497;29;20104;-91
2023/07/12 08:20:14;;;;;;;18.42;6.93;;;25.00;58.40;;;;;;4847574;29;20117;-90
2023/07/12 08:22:42;;;;;;;10.98;5.82;;;24.90;57.00;;;;;;4845554;29;20101;-91
2023/07/12 08:25:13;;;;;;;12.60;5.50;;;24.90;56.80;;;;;;4849026;29;20041;-91
2023/07/12 08:27:40;;;;;;;11.80;5.35;;;24.90;57.80;;;;;;4848961;29;20072;-90
2023/07/12 08:30:11;;;;;;;13.47;5.70;;;24.90;57.40;;;;;;4849163;29;20053;-90
2023/07/12 08:32:41;;;;;;;11.68;5.10;;;24.80;57.60;;;;;;4849188;29;20149;-90
2023/07/12 08:35:10;;;;;;;11.10;5.20;;;24.70;57.80;;;;;;4848925;29;20049;-90
2023/07/12 08:37:38;;;;;;;11.02;5.28;;;24.70;57.50;;;;;;4849053;29;20057;-90
2023/07/12 08:40:12;;;;;;;14.10;5.63;;;24.70;58.90;;;;;;4849766;29;20060;-90
2023/07/12 08:42:41;;;;;;;11.33;5.83;;;24.70;59.60;;;;;;4849244;29;20539;-90
2023/07/12 08:45:29;;;;;;;10.65;5.47;;;24.80;58.20;;;;;;4849125;29;20053;-91
2023/07/12 08:48:00;;;;;;;11.18;5.95;;;24.90;59.40;;;;;;4848822;29;20056;-90
2023/07/12 08:50:39;;;;;;;13.23;6.00;;;24.90;58.00;;;;;;4849068;29;20104;-91
2023/07/12 08:53:17;;;;;;;14.40;6.28;;;24.80;59.00;;;;;;4849196;29;20041;-90
2023/07/12 08:55:45;;;;;;;17.83;6.70;;;24.90;58.00;;;;;;4848885;29;20050;-91
2023/07/12 08:58:30;;;;;;;16.23;6.03;;;24.80;58.80;;;;;;4848878;29;20560;-91
2023/07/12 09:01:08;;;;;;;13.02;6.10;;;24.90;59.10;;;;;;4848131;29;20059;-91
2023/07/12 09:03:35;;;;;;;13.60;5.72;;;24.90;60.70;;;;;;4839716;29;20061;-91
2023/07/12 09:06:11;;;;;;;12.40;4.85;;;24.80;60.50;;;;;;4845447;29;20181;-91
2023/07/12 09:08:40;;;;;;;12.03;6.00;;;25.00;58.60;;;;;;4830529;29;20102;-91
2023/07/12 09:11:19;;;;;;;13.40;5.47;;;25.00;60.00;;;;;;4846042;29;20141;-91
2023/07/12 09:13:48;;;;;;;9.25;4.88;;;25.10;58.90;;;;;;4832781;29;20046;-91
2023/07/12 09:16:24;;;;;;;10.07;4.70;;;25.20;59.50;;;;;;4837118;29;20184;-92
2023/07/12 09:18:54;;;;;;;8.98;5.13;;;25.20;59.10;;;;;;4835704;29;20065;-91
2023/07/12 09:21:32;;;;;;;11.27;5.40;;;25.30;59.60;;;;;;4834019;29;20143;-90
2023/07/12 09:24:03;;;;;;;12.60;5.82;;;25.30;59.10;;;;;;4838810;29;20054;-92
2023/07/12 09:26:33;;;;;;;11.55;6.15;;;25.30;58.90;;;;;;4831224;29;20086;-92
2023/07/12 09:29:14;;;;;;;12.68;6.10;;;25.20;59.20;;;;;;4842208;29;20068;-92
2023/07/12 09:31:44;;;;;;;13.40;6.07;;;25.20;60.10;;;;;;4834027;29;20057;-91
2023/07/12 09:34:19;;;;;;;22.17;8.40;;;25.30;60.00;;;;;;4837662;29;20564;-91
2023/07/12 09:36:55;;;;;;;15.80;7.20;;;25.40;59.70;;;;;;4836264;29;20050;-92
2023/07/12 09:39:22;;;;;;;23.05;11.15;;;25.60;60.00;;;;;;4840472;29;20053;-92
2023/07/12 09:41:53;;;;;;;18.38;9.05;;;25.80;60.00;;;;;;4837440;29;20053;-92
2023/07/12 09:44:21;;;;;;;21.73;7.38;;;25.90;60.50;;;;;;4844451;29;20053;-91
2023/07/12 09:46:55;;;;;;;17.43;7.50;;;26.00;59.70;;;;;;4836220;29;20046;-91
2023/07/12 09:49:41;;;;;;;20.20;9.27;;;26.10;59.30;;;;;;4845805;29;20057;-91
2023/07/12 09:52:41;;;;;;;16.45;7.88;;;26.10;59.80;;;;;;4831160;29;20497;-92
2023/07/12 09:55:17;;;;;;;22.20;9.23;;;26.10;60.10;;;;;;4833348;29;20058;-91
2023/07/12 09:58:09;;;;;;;19.05;9.00;;;26.00;59.70;;;;;;4845375;29;20057;-92
2023/07/12 10:01:16;;;;;;;27.03;12.40;;;26.00;61.40;;;;;;4861386;29;20046;-92
2023/07/12 10:03:59;;;;;;;24.38;12.35;;;25.90;60.90;;;;;;4840886;29;20058;-92
2023/07/12 10:06:44;;;;;;;17.98;9.05;;;25.80;61.40;;;;;;4837281;29;20161;-91
2023/07/12 10:09:22;;;;;;;18.15;7.88;;;25.90;60.70;;;;;;4838919;29;20049;-91
2023/07/12 10:12:03;;;;;;;19.13;8.05;;;26.00;60.70;;;;;;4846783;29;20060;-92
2023/07/12 10:14:35;;;;;;;16.00;7.10;;;26.10;59.40;;;;;;4831467;29;20081;-91
2023/07/12 10:17:08;;;;;;;12.20;6.18;;;26.20;59.50;;;;;;4835999;29;20057;-92
2023/07/12 10:19:40;;;;;;;12.20;5.63;;;26.40;59.20;;;;;;4834975;29;20050;-92
2023/07/12 10:22:19;;;;;;;9.18;5.47;;;26.40;59.10;;;;;;4847370;29;20073;-91
2023/07/12 10:24:50;;;;;;;12.52;5.00;;;26.50;58.80;;;;;;4830362;29;20423;-92
2023/07/12 10:27:24;;;;;;;8.40;5.07;;;26.30;58.60;;;;;;4837927;29;20046;-91
2023/07/12 10:29:57;;;;;;;9.18;4.80;;;26.10;58.30;;;;;;4842564;29;20657;-91
2023/07/12 10:32:31;;;;;;;10.40;5.40;;;25.80;58.10;;;;;;4830598;29;20460;-91
2023/07/12 10:35:15;;;;;;;10.48;4.90;;;25.60;59.10;;;;;;4832331;29;20421;-93
2023/07/12 10:37:53;;;;;;;9.50;5.55;;;25.60;59.20;;;;;;4836997;29;20056;-92
2023/07/12 10:40:26;;;;;;;9.60;4.83;;;25.30;59.90;;;;;;4836246;29;20060;-92
2023/07/12 10:43:05;;;;;;;10.73;5.43;;;25.20;59.70;;;;;;4837564;29;20084;-92
2023/07/12 10:45:45;;;;;;;14.63;5.57;;;25.00;59.90;;;;;;4836160;29;20080;-92
2023/07/12 10:48:22;;;;;;;10.85;5.80;;;24.90;60.20;;;;;;4838426;29;20046;-92
2023/07/12 10:50:53;;;;;;;13.63;5.50;;;24.90;60.50;;;;;;4830618;29;20054;-92
2023/07/12 10:53:25;;;;;;;10.33;5.53;;;24.90;60.80;;;;;;4836651;29;20064;-92
2023/07/12 10:56:06;;;;;;;9.93;5.60;;;24.80;61.00;;;;;;4840872;29;20068;-93
2023/07/12 10:58:46;;;;;;;10.57;5.35;;;24.80;61.10;;;;;;4833820;29;20465;-91
2023/07/12 11:01:43;;;;;;;9.18;5.05;;;24.80;61.40;;;;;;4849282;29;20050;-91
2023/07/12 11:04:32;;;;;;;10.48;4.88;;;24.80;60.20;;;;;;4826598;29;20061;-92
2023/07/12 11:07:13;;;;;;;10.57;5.30;;;24.80;59.80;;;;;;4847551;29;20058;-91
2023/07/12 11:09:43;;;;;;;11.18;5.55;;;24.80;60.70;;;;;;4853237;29;20049;-92
2023/07/12 11:12:13;;;;;;;10.02;5.78;;;24.90;60.90;;;;;;4850499;29;20133;-92
2023/07/12 11:14:42;;;;;;;9.45;5.28;;;25.00;59.70;;;;;;4829106;29;20137;-92
2023/07/12 11:17:21;;;;;;;9.93;5.15;;;25.10;60.90;;;;;;4835668;29;20125;-92
2023/07/12 11:20:18;;;;;;;14.83;5.80;;;25.20;60.20;;;;;;4828739;29;20517;-91
2023/07/12 11:22:57;;;;;;;12.98;5.63;;;25.30;60.10;;;;;;4843633;29;20056;-92
2023/07/12 11:25:35;;;;;;;10.65;5.53;;;25.50;58.60;;;;;;4841685;29;20045;-93
2023/07/12 11:28:25;;;;;;;11.15;5.43;;;25.70;58.70;;;;;;4845667;29;20133;-92
2023/07/12 11:31:15;;;;;;;10.48;5.45;;;25.90;58.30;;;;;;4838607;29;20060;-93
2023/07/12 11:34:10;;;;;;;11.70;5.13;;;26.00;58.70;;;;;;4846772;29;20049;-92
2023/07/12 11:36:37;;;;;;;14.20;5.57;;;26.10;58.60;;;;;;4834990;29;20060;-92
2023/07/12 11:39:22;;;;;;;8.48;4.70;;;26.10;57.90;;;;;;4847111;29;20060;-92
2023/07/12 11:42:22;;;;;;;9.70;5.45;;;26.10;56.60;;;;;;4832332;29;20045;-93
2023/07/12 11:45:09;;;;;;;9.27;5.45;;;26.00;57.30;;;;;;4848292;29;20524;-93
2023/07/12 11:47:43;;;;;;;9.60;5.20;;;26.00;58.80;;;;;;4833764;29;20053;-92
2023/07/12 11:50:23;;;;;;;11.63;5.78;;;26.30;58.70;;;;;;4841122;29;20069;-92
2023/07/12 11:52:52;;;;;;;9.45;5.00;;;26.90;57.60;;;;;;4854913;29;20134;-93
2023/07/12 11:55:26;;;;;;;12.18;7.63;;;27.40;55.00;;;;;;4835343;29;20420;-92
2023/07/12 11:57:55;;;;;;;10.27;5.70;;;27.60;55.80;;;;;;4836829;29;20140;-93
2023/07/12 12:00:26;;;;;;;8.80;5.03;;;27.80;54.50;;;;;;4847071;29;20053;-93
2023/07/12 12:02:56;;;;;;;13.55;5.50;;;28.00;52.70;;;;;;4843638;29;20145;-93
2023/07/12 12:05:33;;;;;;;10.02;5.57;;;28.30;53.00;;;;;;4843041;29;20140;-92
2023/07/12 12:08:03;;;;;;;9.60;4.97;;;28.60;53.20;;;;;;4849087;29;20144;-92
2023/07/12 12:10:33;;;;;;;13.63;8.57;;;28.70;52.90;;;;;;4848642;29;20077;-93
2023/07/12 12:13:18;;;;;;;10.40;5.17;;;28.70;51.50;;;;;;4848644;29;20476;-93
2023/07/12 12:15:48;;;;;;;11.35;7.97;;;28.60;51.50;;;;;;4847897;29;20057;-93
2023/07/12 12:18:18;;;;;;;10.95;5.05;;;28.80;52.70;;;;;;4847993;29;20064;-93
2023/07/12 12:21:13;;;;;;;12.48;5.85;;;28.80;51.10;;;;;;4848348;29;20416;-93
2023/07/12 12:23:47;;;;;;;9.13;5.18;;;28.80;52.00;;;;;;4848200;29;20078;-92
2023/07/12 12:26:19;;;;;;;11.13;4.50;;;28.70;51.50;;;;;;4848421;29;20179;-93
2023/07/12 12:29:00;;;;;;;10.93;5.68;;;28.80;51.70;;;;;;4847922;29;20144;-93
2023/07/12 12:31:32;;;;;;;11.93;5.50;;;29.00;51.20;;;;;;4848864;29;20041;-93
2023/07/12 12:34:15;;;;;;;12.07;5.10;;;29.10;51.20;;;;;;4839030;29;20037;-90
2023/07/12 12:37:00;;;;;;;8.25;4.75;;;29.10;49.90;;;;;;4836757;29;20451;-89
2023/07/12 12:39:28;;;;;;;8.60;4.80;;;29.10;50.50;;;;;;4849166;29;20504;-89
2023/07/12 12:41:58;;;;;;;9.82;5.20;;;29.10;49.40;;;;;;4829817;29;20042;-89
2023/07/12 12:44:31;;;;;;;11.50;4.70;;;29.20;50.20;;;;;;4849796;29;20053;-89
2023/07/12 12:47:26;;;;;;;8.27;4.85;;;29.40;51.60;;;;;;4850478;29;20053;-89
2023/07/12 12:49:53;;;;;;;9.98;4.97;;;29.40;51.00;;;;;;4844018;29;20042;-90
2023/07/12 12:52:29;;;;;;;10.67;4.73;;;29.60;50.20;;;;;;4850170;29;20511;-89
2023/07/12 12:55:05;;;;;;;10.93;4.60;;;29.50;50.40;;;;;;4839869;29;20049;-89
2023/07/12 12:57:42;;;;;;;10.55;4.78;;;29.40;49.60;;;;;;4836921;29;20524;-90
2023/07/12 13:00:18;;;;;;;8.18;4.22;;;29.30;49.30;;;;;;4833949;29;20056;-89
2023/07/12 13:02:49;;;;;;;8.45;4.93;;;29.40;50.30;;;;;;4837839;29;20088;-89
2023/07/12 13:05:22;;;;;;;9.37;4.27;;;29.30;50.10;;;;;;4816695;29;20058;-89